createdAt,value
2022-08-31T00:00:10.434Z,26.42
2022-08-31T00:02:56.436Z,30.45
2022-08-31T00:05:23.622Z,21.98
2022-08-31T00:07:50.591Z,31.02
2022-08-31T00:10:20.058Z,24.00
2022-08-31T00:12:59.617Z,29.23
2022-08-31T00:15:26.511Z,29.17
2022-08-31T00:17:53.860Z,27.00
2022-08-31T00:20:33.493Z,31.20
2022-08-31T00:23:01.420Z,27.73
2022-08-31T00:25:28.129Z,24.65
2022-08-31T00:27:55.865Z,27.20
2022-08-31T00:30:23.399Z,22.85
2022-08-31T00:32:50.204Z,35.75
2022-08-31T00:35:17.071Z,37.58
2022-08-31T00:37:43.756Z,26.65
2022-08-31T00:40:10.964Z,25.33
2022-08-31T00:42:37.763Z,31.15
2022-08-31T00:45:05.596Z,28.80
2022-08-31T00:47:32.301Z,28.23
2022-08-31T00:49:59.996Z,32.88
2022-08-31T00:52:33.400Z,29.17
2022-08-31T00:55:27.768Z,28.85
2022-08-31T00:57:56.607Z,36.10
2022-08-31T01:02:52.637Z,27.45
2022-08-31T01:05:19.637Z,31.00
2022-08-31T01:07:47.868Z,38.55
2022-08-31T01:10:17.206Z,31.92
2022-08-31T01:12:44.780Z,38.38
2022-08-31T01:15:13.024Z,34.17
2022-08-31T01:17:40.752Z,27.17
2022-08-31T01:20:25.861Z,24.33
2022-08-31T01:23:04.156Z,27.98
2022-08-31T01:25:33.343Z,27.20
2022-08-31T01:28:02.550Z,22.35
2022-08-31T01:30:29.226Z,22.77
2022-08-31T01:32:55.924Z,25.23
2022-08-31T01:35:22.623Z,25.77
2022-08-31T01:37:49.740Z,23.75
2022-08-31T01:40:17.384Z,32.95
2022-08-31T01:42:44.065Z,23.70
2022-08-31T01:45:11.936Z,25.02
2022-08-31T01:47:40.497Z,23.30
2022-08-31T01:50:08.040Z,32.25
2022-08-31T01:52:37.317Z,25.67
2022-08-31T01:55:06.266Z,25.70
2022-08-31T01:57:34.597Z,30.33
2022-08-31T02:00:04.476Z,28.27
2022-08-31T02:02:32.001Z,29.70
2022-08-31T02:04:59.156Z,25.95
2022-08-31T02:07:26.654Z,30.10
2022-08-31T02:09:54.696Z,26.83
2022-08-31T02:12:21.537Z,26.63
2022-08-31T02:14:48.433Z,27.35
2022-08-31T02:17:15.114Z,24.23
2022-08-31T02:19:41.829Z,28.60
2022-08-31T02:22:08.529Z,44.47
2022-08-31T02:24:35.278Z,41.42
2022-08-31T02:27:02.055Z,31.80
2022-08-31T02:29:29.095Z,29.33
2022-08-31T02:31:57.036Z,22.85
2022-08-31T02:34:23.765Z,29.50
2022-08-31T02:36:50.438Z,22.05
2022-08-31T02:39:17.164Z,22.52
2022-08-31T02:41:43.898Z,28.98
2022-08-31T02:44:10.660Z,28.38
2022-08-31T02:46:37.546Z,21.80
2022-08-31T02:49:04.694Z,33.15
2022-08-31T02:51:31.799Z,36.38
2022-08-31T02:53:58.507Z,26.80
2022-08-31T02:56:25.981Z,35.28
2022-08-31T02:58:55.245Z,37.70
2022-08-31T03:01:23.554Z,35.90
2022-08-31T03:03:50.465Z,37.80
2022-08-31T03:06:18.782Z,41.50
2022-08-31T03:08:46.424Z,41.80
2022-08-31T03:11:13.529Z,38.30
2022-08-31T03:13:40.670Z,31.42
2022-08-31T03:16:07.570Z,31.35
2022-08-31T03:18:34.720Z,34.80
2022-08-31T03:21:02.517Z,35.92
2022-08-31T03:23:29.319Z,28.30
2022-08-31T03:25:56.134Z,34.92
2022-08-31T03:28:22.866Z,27.88
2022-08-31T03:30:49.839Z,30.02
2022-08-31T03:33:16.841Z,29.85
2022-08-31T03:35:44.389Z,26.42
2022-08-31T03:38:12.955Z,36.17
2022-08-31T03:40:43.884Z,38.97
2022-08-31T03:43:12.074Z,42.63
2022-08-31T03:45:40.217Z,29.23
2022-08-31T03:48:12.282Z,44.53
2022-08-31T03:50:41.029Z,37.80
2022-08-31T03:53:08.578Z,32.88
2022-08-31T03:55:38.564Z,32.15
2022-08-31T03:58:06.550Z,32.92
2022-08-31T04:00:33.999Z,39.65
2022-08-31T04:03:01.727Z,43.05
2022-08-31T04:05:29.885Z,39.90
2022-08-31T04:07:56.843Z,40.00
2022-08-31T04:10:23.629Z,42.95
2022-08-31T04:12:50.820Z,40.97
2022-08-31T04:15:18.492Z,37.67
2022-08-31T04:17:47.340Z,41.88
2022-08-31T04:22:40.729Z,40.72
2022-08-31T04:25:10.342Z,46.42
2022-08-31T04:27:38.373Z,34.45
2022-08-31T04:30:07.722Z,44.60
2022-08-31T04:32:35.409Z,37.60
2022-08-31T04:35:02.148Z,30.17
2022-08-31T04:37:29.559Z,35.47
2022-08-31T04:39:59.139Z,40.03
2022-08-31T04:42:26.383Z,30.33
2022-08-31T04:44:53.182Z,44.25
2022-08-31T04:47:20.517Z,37.10
2022-08-31T04:49:48.272Z,42.60
2022-08-31T04:52:15.003Z,30.48
2022-08-31T04:54:42.029Z,32.30
2022-08-31T04:57:08.726Z,35.78
2022-08-31T04:59:35.543Z,27.95
2022-08-31T05:02:04.123Z,36.45
2022-08-31T05:04:31.985Z,42.25
2022-08-31T05:06:58.997Z,42.38
2022-08-31T05:09:26.102Z,39.22
2022-08-31T05:11:54.306Z,42.72
2022-08-31T05:14:22.344Z,36.45
2022-08-31T05:16:50.040Z,33.63
2022-08-31T05:19:17.201Z,29.45
2022-08-31T05:21:44.949Z,26.27
2022-08-31T05:24:15.584Z,34.70
2022-08-31T05:26:47.194Z,49.78
2022-08-31T05:29:15.109Z,49.85
2022-08-31T05:31:42.691Z,50.92
2022-08-31T05:34:09.558Z,47.75
2022-08-31T05:36:36.334Z,43.53
2022-08-31T05:39:03.083Z,44.72
2022-08-31T05:41:30.502Z,51.90
2022-08-31T05:43:57.411Z,49.03
2022-08-31T05:46:24.200Z,50.22
2022-08-31T05:48:51.167Z,55.17
2022-08-31T05:51:19.016Z,43.65
2022-08-31T05:53:47.059Z,44.88
2022-08-31T05:56:20.135Z,39.42
2022-08-31T05:58:48.656Z,44.83
2022-08-31T06:01:22.374Z,45.83
2022-08-31T06:03:49.933Z,43.72
2022-08-31T06:06:16.907Z,43.38
2022-08-31T06:08:44.049Z,45.42
2022-08-31T06:11:15.827Z,47.53
2022-08-31T06:13:42.677Z,47.83
2022-08-31T06:16:09.921Z,50.75
2022-08-31T06:18:41.321Z,46.80
2022-08-31T06:21:10.247Z,40.67
2022-08-31T06:26:08.104Z,39.05
2022-08-31T06:28:35.086Z,41.33
2022-08-31T06:31:07.934Z,41.65
2022-08-31T06:33:42.346Z,52.20
2022-08-31T06:36:14.560Z,48.28
2022-08-31T06:38:43.464Z,65.93
2022-08-31T06:41:25.495Z,46.75
2022-08-31T06:43:52.181Z,37.65
2022-08-31T06:46:20.076Z,42.53
2022-08-31T06:48:50.782Z,36.58
2022-08-31T06:51:18.184Z,42.55
2022-08-31T06:53:45.250Z,37.83
2022-08-31T06:56:30.599Z,37.53
2022-08-31T06:58:59.402Z,45.03
2022-08-31T07:01:35.703Z,49.80
2022-08-31T07:04:07.230Z,63.92
2022-08-31T07:06:41.040Z,81.75
2022-08-31T07:09:10.114Z,93.25
2022-08-31T07:11:44.605Z,93.45
2022-08-31T07:14:14.267Z,90.22
2022-08-31T07:16:42.311Z,96.38
2022-08-31T07:19:09.675Z,80.07
2022-08-31T07:21:48.209Z,86.53
2022-08-31T07:24:18.133Z,78.38
2022-08-31T07:27:10.060Z,86.53
2022-08-31T07:29:40.793Z,81.07
2022-08-31T07:32:09.015Z,72.57
2022-08-31T07:34:36.318Z,68.88
2022-08-31T07:37:23.614Z,55.10
2022-08-31T07:42:38.885Z,38.35
2022-08-31T07:45:10.139Z,46.00
2022-08-31T07:47:46.221Z,49.03
2022-08-31T07:50:13.861Z,42.97
2022-08-31T07:52:48.565Z,39.95
2022-08-31T07:55:16.819Z,37.08
2022-08-31T07:57:44.283Z,34.72
2022-08-31T08:00:15.452Z,39.33
2022-08-31T08:02:50.845Z,37.83
2022-08-31T08:05:26.856Z,53.75
2022-08-31T08:07:57.624Z,31.10
2022-08-31T08:10:26.429Z,52.50
2022-08-31T08:15:27.517Z,43.08
2022-08-31T08:17:54.270Z,46.35
2022-08-31T08:20:25.727Z,44.97
2022-08-31T08:23:02.045Z,45.03
2022-08-31T08:25:28.758Z,34.72
2022-08-31T08:30:24.300Z,28.35
2022-08-31T08:32:50.961Z,26.25
2022-08-31T08:35:17.761Z,33.60
2022-08-31T08:37:58.451Z,30.13
2022-08-31T08:40:31.995Z,30.60
2022-08-31T08:43:00.038Z,27.38
2022-08-31T08:45:27.183Z,29.98
2022-08-31T08:47:56.979Z,29.15
2022-08-31T08:50:28.074Z,26.05
2022-08-31T08:52:57.268Z,33.20
2022-08-31T08:55:40.813Z,39.90
2022-08-31T08:58:10.551Z,31.98
2022-08-31T09:00:46.733Z,24.80
2022-08-31T09:03:30.971Z,32.10
2022-08-31T09:06:08.020Z,39.97
2022-08-31T09:08:54.896Z,22.70
2022-08-31T09:11:54.977Z,27.90
2022-08-31T09:14:47.726Z,28.05
2022-08-31T09:17:37.649Z,36.97
2022-08-31T09:20:05.806Z,39.08
2022-08-31T09:22:47.201Z,41.85
2022-08-31T09:25:26.595Z,34.78
2022-08-31T09:27:57.737Z,34.80
2022-08-31T09:30:45.639Z,37.67
2022-08-31T09:33:22.628Z,34.30
2022-08-31T09:35:56.728Z,28.48
2022-08-31T09:38:29.966Z,28.55
2022-08-31T09:40:56.871Z,22.80
2022-08-31T09:43:25.456Z,25.77
2022-08-31T09:46:01.534Z,29.40
2022-08-31T09:48:51.504Z,31.35
2022-08-31T09:51:30.302Z,27.50
2022-08-31T09:54:23.165Z,29.63
2022-08-31T09:56:55.555Z,25.65
2022-08-31T09:59:49.791Z,30.58
2022-08-31T10:02:26.237Z,24.77
2022-08-31T10:04:58.364Z,28.75
2022-08-31T10:07:38.113Z,25.52
2022-08-31T10:10:08.250Z,22.50
2022-08-31T10:13:02.101Z,22.63
2022-08-31T10:15:42.219Z,22.40
2022-08-31T10:18:18.690Z,30.88
2022-08-31T10:20:53.960Z,21.20
2022-08-31T10:23:36.963Z,18.92
2022-08-31T10:26:29.192Z,27.88
2022-08-31T10:28:59.326Z,20.02
2022-08-31T10:31:32.019Z,25.63
2022-08-31T10:34:19.696Z,26.13
2022-08-31T10:36:48.376Z,23.27
2022-08-31T10:39:34.582Z,23.52
2022-08-31T10:42:05.524Z,25.90
2022-08-31T10:44:52.254Z,18.52
2022-08-31T10:47:22.913Z,24.77
2022-08-31T10:50:00.892Z,18.20
2022-08-31T10:52:34.542Z,31.27
2022-08-31T10:55:29.204Z,17.17
2022-08-31T10:58:26.425Z,18.75
2022-08-31T11:01:10.257Z,18.25
2022-08-31T11:03:52.949Z,28.00
2022-08-31T11:06:31.038Z,22.42
2022-08-31T11:09:03.777Z,22.40
2022-08-31T11:11:46.495Z,21.88
2022-08-31T11:14:21.122Z,16.42
2022-08-31T11:17:02.924Z,21.10
2022-08-31T11:20:00.947Z,24.70
2022-08-31T11:22:34.998Z,25.10
2022-08-31T11:25:08.238Z,22.85
2022-08-31T11:27:39.518Z,21.75
2022-08-31T11:30:11.466Z,28.10
2022-08-31T11:32:59.693Z,20.45
2022-08-31T11:36:10.145Z,16.48
2022-08-31T11:38:56.753Z,19.63
2022-08-31T11:41:51.093Z,19.00
2022-08-31T11:44:30.001Z,22.23
2022-08-31T11:47:14.633Z,28.52
2022-08-31T11:49:41.265Z,19.95
2022-08-31T11:52:34.640Z,26.63
2022-08-31T11:55:27.307Z,23.25
2022-08-31T11:58:06.407Z,22.85
2022-08-31T12:00:48.797Z,19.27
2022-08-31T12:03:50.790Z,31.08
2022-08-31T12:06:28.233Z,20.35
2022-08-31T12:09:27.499Z,23.13
2022-08-31T12:14:33.224Z,24.85
2022-08-31T12:17:34.023Z,24.85
2022-08-31T12:20:09.240Z,20.70
2022-08-31T12:23:15.378Z,21.60
2022-08-31T12:26:16.737Z,18.98
2022-08-31T12:29:02.193Z,24.88
2022-08-31T12:31:28.967Z,20.80
2022-08-31T12:34:13.092Z,25.10
2022-08-31T12:36:40.341Z,17.60
2022-08-31T12:39:33.943Z,19.67
2022-08-31T12:42:05.610Z,22.80
2022-08-31T12:44:36.950Z,15.65
2022-08-31T12:47:24.042Z,17.02
2022-08-31T12:50:21.080Z,26.38
2022-08-31T12:53:25.520Z,20.30
2022-08-31T12:56:00.989Z,20.65
2022-08-31T12:59:01.695Z,18.17
2022-08-31T13:01:28.670Z,20.70
2022-08-31T13:04:00.029Z,20.80
2022-08-31T13:06:30.062Z,18.42
2022-08-31T13:08:59.130Z,15.55
2022-08-31T13:11:40.709Z,18.42
2022-08-31T13:14:20.053Z,17.60
2022-08-31T13:16:51.156Z,19.17
2022-08-31T13:19:29.679Z,20.88
2022-08-31T13:22:06.469Z,14.38
2022-08-31T13:24:46.054Z,21.08
2022-08-31T13:27:24.774Z,20.75
2022-08-31T13:29:53.512Z,22.30
2022-08-31T13:34:58.958Z,30.42
2022-08-31T13:37:30.740Z,22.77
2022-08-31T13:39:58.646Z,18.50
2022-08-31T13:42:32.348Z,26.48
2022-08-31T13:45:09.218Z,23.45
2022-08-31T13:47:51.885Z,19.48
2022-08-31T13:50:28.106Z,21.45
2022-08-31T13:53:24.856Z,21.60
2022-08-31T13:55:44.775Z,20.52
2022-08-31T13:58:31.115Z,22.52
2022-08-31T14:01:28.469Z,19.60
2022-08-31T14:03:59.904Z,21.40
2022-08-31T14:06:37.997Z,17.85
2022-08-31T14:09:17.983Z,19.85
2022-08-31T14:11:55.122Z,18.05
2022-08-31T14:14:29.722Z,24.42
2022-08-31T14:16:57.614Z,19.02
2022-08-31T14:19:38.937Z,24.63
2022-08-31T14:22:25.776Z,23.83
2022-08-31T14:24:55.510Z,21.73
2022-08-31T14:27:23.411Z,23.13
2022-08-31T14:29:52.267Z,18.80
2022-08-31T14:32:20.073Z,19.58
2022-08-31T14:34:51.188Z,21.27
2022-08-31T14:37:28.901Z,23.33
2022-08-31T14:40:05.505Z,24.42
2022-08-31T14:42:38.147Z,23.23
2022-08-31T14:45:08.506Z,24.38
2022-08-31T14:47:41.902Z,23.65
2022-08-31T14:50:11.454Z,24.02
2022-08-31T14:52:44.627Z,21.13
2022-08-31T14:55:13.486Z,23.05
2022-08-31T14:57:42.175Z,19.23
2022-08-31T15:00:11.778Z,22.67
2022-08-31T15:05:09.924Z,17.75
2022-08-31T15:07:39.490Z,20.02
2022-08-31T15:10:08.943Z,16.83
2022-08-31T15:12:37.039Z,25.65
2022-08-31T15:15:04.581Z,25.52
2022-08-31T15:17:33.935Z,26.70
2022-08-31T15:20:03.111Z,19.35
2022-08-31T15:22:29.781Z,24.75
2022-08-31T15:24:56.503Z,22.35
2022-08-31T15:27:25.532Z,19.50
2022-08-31T15:29:56.131Z,25.67
2022-08-31T15:32:22.921Z,23.83
2022-08-31T15:34:56.920Z,32.03
2022-08-31T15:37:27.413Z,18.98
2022-08-31T15:40:00.733Z,29.95
2022-08-31T15:42:29.606Z,24.50
2022-08-31T15:44:57.179Z,23.90
2022-08-31T15:48:03.195Z,21.02
2022-08-31T15:50:31.707Z,23.40
2022-08-31T15:53:05.217Z,22.80
2022-08-31T15:55:36.245Z,19.90
2022-08-31T15:58:04.266Z,22.50
2022-08-31T16:00:32.798Z,19.27
2022-08-31T16:03:02.151Z,21.30
2022-08-31T16:05:35.855Z,21.83
2022-08-31T16:08:02.972Z,26.30
2022-08-31T16:10:31.076Z,23.38
2022-08-31T16:12:57.982Z,26.13
2022-08-31T16:15:25.477Z,21.90
2022-08-31T16:17:57.240Z,26.02
2022-08-31T16:20:24.018Z,22.50
2022-08-31T16:22:50.876Z,27.38
2022-08-31T16:25:17.713Z,25.98
2022-08-31T16:27:47.336Z,27.30
2022-08-31T16:30:14.696Z,24.08
2022-08-31T16:32:41.417Z,25.88
2022-08-31T16:35:08.561Z,20.25
2022-08-31T16:37:35.271Z,27.88
2022-08-31T16:40:02.477Z,25.20
2022-08-31T16:42:29.357Z,24.52
2022-08-31T16:45:01.269Z,25.95
2022-08-31T16:47:29.343Z,26.20
2022-08-31T16:49:56.426Z,19.08
2022-08-31T16:52:28.056Z,28.27
2022-08-31T16:54:57.382Z,20.85
2022-08-31T16:57:27.365Z,28.25
2022-08-31T16:59:58.038Z,22.70
2022-08-31T17:02:25.244Z,32.50
2022-08-31T17:04:54.312Z,31.63
2022-08-31T17:07:23.636Z,24.83
2022-08-31T17:09:51.048Z,22.45
2022-08-31T17:12:21.662Z,32.58
2022-08-31T17:14:52.778Z,32.03
2022-08-31T17:17:22.681Z,23.25
2022-08-31T17:19:50.015Z,31.20
2022-08-31T17:22:25.735Z,29.17
2022-08-31T17:24:57.800Z,24.88
2022-08-31T17:27:26.026Z,27.25
2022-08-31T17:29:55.277Z,25.02
2022-08-31T17:32:24.970Z,24.00
2022-08-31T17:34:54.486Z,25.08
2022-08-31T17:37:32.683Z,22.50
2022-08-31T17:40:00.496Z,30.85
2022-08-31T17:42:28.238Z,20.13
2022-08-31T17:44:56.884Z,23.35
2022-08-31T17:47:25.320Z,23.20
2022-08-31T17:49:52.721Z,24.98
2022-08-31T17:52:21.746Z,30.25
2022-08-31T17:54:51.125Z,25.20
2022-08-31T17:57:23.234Z,25.23
2022-08-31T17:59:49.930Z,23.85
2022-08-31T18:02:21.159Z,31.58
2022-08-31T18:04:48.931Z,30.70
2022-08-31T18:07:16.331Z,23.13
2022-08-31T18:09:45.500Z,26.90
2022-08-31T18:12:13.732Z,22.25
2022-08-31T18:14:41.636Z,21.05
2022-08-31T18:17:11.442Z,25.83
2022-08-31T18:19:38.422Z,29.15
2022-08-31T18:22:05.964Z,30.52
2022-08-31T18:24:35.611Z,32.13
2022-08-31T18:27:04.175Z,24.38
2022-08-31T18:29:34.481Z,28.27
2022-08-31T18:32:05.418Z,29.85
2022-08-31T18:34:35.328Z,22.27
2022-08-31T18:37:02.342Z,31.15
2022-08-31T18:39:51.146Z,28.45
2022-08-31T18:42:38.431Z,23.08
2022-08-31T18:45:20.979Z,30.70
2022-08-31T18:50:45.833Z,33.63
2022-08-31T18:53:29.299Z,22.15
2022-08-31T18:56:07.829Z,34.72
2022-08-31T18:58:35.796Z,35.05
2022-08-31T19:01:03.240Z,28.25
2022-08-31T19:03:30.264Z,30.95
2022-08-31T19:05:57.308Z,27.98
2022-08-31T19:08:24.901Z,25.42
2022-08-31T19:13:20.034Z,23.85
2022-08-31T19:15:47.143Z,30.48
2022-08-31T19:18:14.062Z,25.15
2022-08-31T19:20:40.891Z,23.73
2022-08-31T19:23:08.264Z,27.95
2022-08-31T19:25:42.297Z,25.08
2022-08-31T19:28:09.173Z,26.58
2022-08-31T19:30:37.170Z,31.52
2022-08-31T19:33:08.523Z,18.77
2022-08-31T19:35:36.510Z,21.80
2022-08-31T19:38:03.430Z,23.33
2022-08-31T19:40:38.365Z,21.73
2022-08-31T19:45:54.322Z,25.95
2022-08-31T19:48:24.002Z,26.80
2022-08-31T19:50:52.140Z,21.30
2022-08-31T19:53:21.586Z,21.67
2022-08-31T19:55:51.362Z,22.75
2022-08-31T19:58:26.589Z,22.95
2022-08-31T20:01:00.788Z,24.55
2022-08-31T20:03:28.246Z,22.92
2022-08-31T20:05:55.168Z,24.55
2022-08-31T20:08:21.883Z,21.40
2022-08-31T20:10:48.627Z,26.70
2022-08-31T20:13:15.313Z,23.30
2022-08-31T20:15:44.217Z,28.05
2022-08-31T20:18:14.231Z,26.33
2022-08-31T20:20:45.758Z,21.65
2022-08-31T20:23:16.641Z,25.35
2022-08-31T20:25:49.358Z,20.23
2022-08-31T20:28:16.899Z,20.38
2022-08-31T20:30:43.943Z,20.48
2022-08-31T20:33:11.936Z,17.40
2022-08-31T20:35:47.575Z,21.45
2022-08-31T20:38:15.841Z,20.60
2022-08-31T20:40:44.284Z,26.42
2022-08-31T20:43:12.766Z,21.00
2022-08-31T20:45:41.077Z,20.30
2022-08-31T20:48:27.120Z,20.25
2022-08-31T20:50:53.837Z,22.80
2022-08-31T20:53:42.228Z,19.50
2022-08-31T20:56:08.080Z,17.40
2022-08-31T20:58:35.143Z,25.48
2022-08-31T21:01:08.053Z,21.52
2022-08-31T21:03:34.878Z,22.83
2022-08-31T21:06:11.573Z,23.52
2022-08-31T21:08:40.056Z,22.20
2022-08-31T21:11:25.044Z,22.33
2022-08-31T21:13:53.086Z,19.33
2022-08-31T21:16:20.223Z,21.13
2022-08-31T21:19:08.056Z,23.83
2022-08-31T21:21:34.742Z,27.50
2022-08-31T21:24:01.405Z,23.90
2022-08-31T21:26:28.293Z,21.02
2022-08-31T21:28:56.752Z,20.67
2022-08-31T21:31:28.850Z,16.70
2022-08-31T21:34:01.426Z,21.65
2022-08-31T21:36:29.614Z,24.40
2022-08-31T21:38:59.768Z,21.35
2022-08-31T21:41:28.053Z,17.52
2022-08-31T21:43:57.650Z,21.27
2022-08-31T21:46:27.260Z,22.58
2022-08-31T21:48:56.725Z,16.42
2022-08-31T21:51:27.834Z,20.05
2022-08-31T21:53:56.797Z,23.52
2022-08-31T21:56:26.404Z,19.27
2022-08-31T21:58:55.467Z,22.55
2022-08-31T22:01:24.118Z,17.80
2022-08-31T22:03:54.874Z,17.33
2022-08-31T22:06:28.138Z,23.50
2022-08-31T22:09:00.757Z,19.30
2022-08-31T22:11:30.501Z,22.90
2022-08-31T22:13:59.242Z,28.63
2022-08-31T22:16:26.465Z,19.85
2022-08-31T22:19:03.027Z,17.95
2022-08-31T22:21:34.773Z,20.90
2022-08-31T22:24:05.320Z,21.27
2022-08-31T22:26:36.077Z,31.88
2022-08-31T22:29:04.895Z,17.35
2022-08-31T22:31:36.112Z,19.75
2022-08-31T22:34:03.971Z,22.67
2022-08-31T22:36:34.560Z,19.85
2022-08-31T22:39:10.450Z,22.23
2022-08-31T22:41:38.684Z,20.45
2022-08-31T22:44:06.529Z,16.85
2022-08-31T22:46:33.784Z,22.40
2022-08-31T22:49:00.775Z,18.00
2022-08-31T22:51:27.867Z,18.70
2022-08-31T22:53:54.554Z,25.27
2022-08-31T22:56:27.894Z,25.13
2022-08-31T22:58:57.527Z,24.98
2022-08-31T23:01:29.887Z,19.77
2022-08-31T23:03:58.407Z,25.02
2022-08-31T23:06:26.046Z,19.30
2022-08-31T23:08:54.175Z,15.93
2022-08-31T23:11:22.662Z,18.98
2022-08-31T23:13:55.691Z,18.20
2022-08-31T23:16:34.793Z,21.45
2022-08-31T23:19:14.309Z,22.23
2022-08-31T23:21:46.755Z,18.10
2022-08-31T23:24:34.590Z,16.50
2022-08-31T23:27:04.513Z,17.98
2022-08-31T23:29:45.744Z,16.40
2022-08-31T23:32:13.490Z,18.90
2022-08-31T23:34:41.790Z,20.67
2022-08-31T23:37:10.571Z,17.45
2022-08-31T23:39:43.854Z,19.75
2022-08-31T23:42:13.732Z,15.93
2022-08-31T23:44:44.094Z,21.67
2022-08-31T23:47:17.917Z,15.93
2022-08-31T23:49:46.046Z,18.05
2022-08-31T23:52:19.093Z,17.30
2022-08-31T23:54:49.937Z,14.52
2022-08-31T23:57:31.422Z,21.23
